WOA2617 DNMM-FOOL
Flight info
| Callsign | WOA2617 |
|---|---|
| Flight time | 1h 17m |
| Altitude | 41000 |
| Route | PISBA1Q PISBA UG856 BIPIV BIPIV2B |
| Aircraft | MD11/H-SDE1E2E3FGHIJ2J3J4J5M1RWXY/LB1D1 |
Departure
| Time | 2026-05-06 00:24 |
|---|---|
| Airport | Murtala Muhammed International Airport (DNMM) |
Arrival
| Time | 2026-05-06 01:41 |
|---|---|
| Airport | Libreville Leon M'ba International Airport (FOOL) |
| Time | Latitude | Longitude | Altitude | Speed | Heading |
|---|---|---|---|---|---|
| 2026-05-05 23:54 | 6.56825 | 3.31778 | 80 ft | 0 kts | 89° |
| 2026-05-06 00:10 | 6.56824 | 3.31763 | 85 ft | 4 kts | 94° |
| 2026-05-06 00:11 | 6.56827 | 3.31736 | 85 ft | 4 kts | 92° |
| 2026-05-06 00:11 | 6.56826 | 3.31713 | 84 ft | 4 kts | 60° |
| 2026-05-06 00:11 | 6.56814 | 3.31695 | 84 ft | 4 kts | 33° |
| 2026-05-06 00:11 | 6.56795 | 3.31689 | 67 ft | 4 kts | 352° |
| 2026-05-06 00:12 | 6.56779 | 3.31691 | 67 ft | 0 kts | 359° |
| 2026-05-06 00:15 | 6.56784 | 3.31691 | 67 ft | 4 kts | 358° |
| 2026-05-06 00:16 | 6.56819 | 3.31682 | 84 ft | 3 kts | 338° |
| 2026-05-06 00:16 | 6.56836 | 3.31669 | 84 ft | 3 kts | 315° |
| 2026-05-06 00:16 | 6.56847 | 3.31647 | 84 ft | 5 kts | 292° |
| 2026-05-06 00:16 | 6.56862 | 3.31583 | 76 ft | 11 kts | 292° |
| 2026-05-06 00:17 | 6.56925 | 3.31543 | 69 ft | 11 kts | 349° |
| 2026-05-06 00:17 | 6.57013 | 3.31539 | 72 ft | 14 kts | 358° |
| 2026-05-06 00:17 | 6.57113 | 3.31538 | 74 ft | 16 kts | 359° |
| 2026-05-06 00:17 | 6.57233 | 3.31537 | 71 ft | 18 kts | 359° |
| 2026-05-06 00:18 | 6.57363 | 3.31535 | 69 ft | 19 kts | 359° |
| 2026-05-06 00:18 | 6.57496 | 3.31533 | 60 ft | 19 kts | 359° |
| 2026-05-06 00:18 | 6.57631 | 3.31531 | 65 ft | 19 kts | 359° |
| 2026-05-06 00:18 | 6.57763 | 3.31530 | 65 ft | 18 kts | 360° |
| 2026-05-06 00:19 | 6.57885 | 3.31529 | 66 ft | 17 kts | 359° |
| 2026-05-06 00:19 | 6.57995 | 3.31527 | 68 ft | 15 kts | 359° |
| 2026-05-06 00:19 | 6.58095 | 3.31526 | 64 ft | 14 kts | 359° |
| 2026-05-06 00:19 | 6.58193 | 3.31525 | 65 ft | 14 kts | 359° |
| 2026-05-06 00:20 | 6.58289 | 3.31524 | 66 ft | 14 kts | 359° |
| 2026-05-06 00:20 | 6.58387 | 3.31522 | 68 ft | 15 kts | 359° |
| 2026-05-06 00:20 | 6.58494 | 3.31521 | 70 ft | 16 kts | 359° |
| 2026-05-06 00:20 | 6.58607 | 3.31520 | 71 ft | 17 kts | 359° |
| 2026-05-06 00:21 | 6.58722 | 3.31519 | 72 ft | 12 kts | 359° |
| 2026-05-06 00:21 | 6.58791 | 3.31495 | 70 ft | 9 kts | 315° |
| 2026-05-06 00:21 | 6.58809 | 3.31438 | 70 ft | 9 kts | 274° |
| 2026-05-06 00:21 | 6.58793 | 3.31377 | 73 ft | 9 kts | 237° |
| 2026-05-06 00:22 | 6.58735 | 3.31330 | 80 ft | 12 kts | 208° |
| 2026-05-06 00:22 | 6.58666 | 3.31317 | 80 ft | 0 kts | 180° |
| 2026-05-06 00:23 | 6.58611 | 3.31317 | 73 ft | 33 kts | 180° |
| 2026-05-06 00:23 | 6.57977 | 3.31323 | 64 ft | 146 kts | 179° |
| 2026-05-06 00:24 | 6.56765 | 3.31338 | 593 ft | 189 kts | 179° |
| 2026-05-06 00:24 | 6.55411 | 3.31372 | 1680 ft | 197 kts | 180° |
| 2026-05-06 00:24 | 6.54047 | 3.31445 | 2835 ft | 197 kts | 178° |
| 2026-05-06 00:24 | 6.52665 | 3.31561 | 4001 ft | 200 kts | 176° |
| 2026-05-06 00:25 | 6.51229 | 3.31636 | 5189 ft | 210 kts | 178° |
| 2026-05-06 00:25 | 6.49735 | 3.31645 | 6382 ft | 218 kts | 179° |
| 2026-05-06 00:25 | 6.48196 | 3.31616 | 7480 ft | 224 kts | 179° |
| 2026-05-06 00:25 | 6.46642 | 3.31551 | 8547 ft | 229 kts | 179° |
| 2026-05-06 00:26 | 6.45015 | 3.31681 | 9117 ft | 235 kts | 157° |
| 2026-05-06 00:26 | 6.43545 | 3.32298 | 9494 ft | 229 kts | 149° |
| 2026-05-06 00:26 | 6.42109 | 3.32948 | 9850 ft | 230 kts | 151° |
| 2026-05-06 00:26 | 6.40610 | 3.33556 | 9969 ft | 233 kts | 153° |
| 2026-05-06 00:27 | 6.39129 | 3.34198 | 10032 ft | 234 kts | 144° |
| 2026-05-06 00:27 | 6.37766 | 3.35244 | 10247 ft | 262 kts | 128° |
| 2026-05-06 00:27 | 6.36629 | 3.36811 | 10405 ft | 295 kts | 119° |
| 2026-05-06 00:27 | 6.35532 | 3.38658 | 10536 ft | 329 kts | 118° |
| 2026-05-06 00:28 | 6.34352 | 3.40703 | 11178 ft | 342 kts | 118° |
| 2026-05-06 00:28 | 6.33146 | 3.42778 | 12169 ft | 346 kts | 118° |
| 2026-05-06 00:28 | 6.31914 | 3.44876 | 13131 ft | 351 kts | 119° |
| 2026-05-06 00:28 | 6.30660 | 3.46994 | 14060 ft | 356 kts | 119° |
| 2026-05-06 00:29 | 6.29378 | 3.49149 | 14835 ft | 363 kts | 119° |
| 2026-05-06 00:29 | 6.28068 | 3.51343 | 15598 ft | 369 kts | 120° |
| 2026-05-06 00:29 | 6.26750 | 3.53549 | 16353 ft | 376 kts | 120° |
| 2026-05-06 00:29 | 6.25371 | 3.55852 | 17123 ft | 383 kts | 120° |
| 2026-05-06 00:30 | 6.24002 | 3.58140 | 17860 ft | 390 kts | 120° |
| 2026-05-06 00:30 | 6.22592 | 3.60495 | 18540 ft | 397 kts | 120° |
| 2026-05-06 00:30 | 6.21163 | 3.62879 | 19233 ft | 401 kts | 119° |
| 2026-05-06 00:30 | 6.19715 | 3.65295 | 19938 ft | 406 kts | 119° |
| 2026-05-06 00:31 | 6.18253 | 3.67736 | 20636 ft | 410 kts | 119° |
| 2026-05-06 00:31 | 6.16770 | 3.70210 | 21301 ft | 415 kts | 119° |
| 2026-05-06 00:31 | 6.15273 | 3.72707 | 21970 ft | 419 kts | 119° |
| 2026-05-06 00:31 | 6.13763 | 3.75228 | 22634 ft | 424 kts | 119° |
| 2026-05-06 00:32 | 6.12253 | 3.77747 | 23282 ft | 428 kts | 119° |
| 2026-05-06 00:32 | 6.10710 | 3.80321 | 23875 ft | 432 kts | 119° |
| 2026-05-06 00:32 | 6.09151 | 3.82920 | 24430 ft | 436 kts | 119° |
| 2026-05-06 00:32 | 6.07582 | 3.85535 | 24985 ft | 440 kts | 119° |
| 2026-05-06 00:33 | 6.05992 | 3.88186 | 25509 ft | 444 kts | 119° |
| 2026-05-06 00:33 | 6.04393 | 3.90851 | 26058 ft | 448 kts | 119° |
| 2026-05-06 00:33 | 6.02778 | 3.93543 | 26588 ft | 452 kts | 119° |
| 2026-05-06 00:33 | 6.01150 | 3.96255 | 27104 ft | 455 kts | 119° |
| 2026-05-06 00:34 | 5.99507 | 3.98993 | 27625 ft | 459 kts | 119° |
| 2026-05-06 00:34 | 5.97877 | 4.01709 | 28120 ft | 463 kts | 119° |
| 2026-05-06 00:34 | 5.96201 | 4.04493 | 28618 ft | 467 kts | 120° |
| 2026-05-06 00:34 | 5.94306 | 4.07156 | 29083 ft | 472 kts | 128° |
| 2026-05-06 00:35 | 5.92092 | 4.09623 | 29553 ft | 477 kts | 133° |
| 2026-05-06 00:35 | 5.89726 | 4.11980 | 30011 ft | 481 kts | 134° |
| 2026-05-06 00:35 | 5.87298 | 4.14307 | 30422 ft | 485 kts | 135° |
| 2026-05-06 00:35 | 5.84853 | 4.16645 | 30916 ft | 485 kts | 134° |
| 2026-05-06 00:36 | 5.82421 | 4.18997 | 31500 ft | 484 kts | 134° |
| 2026-05-06 00:36 | 5.80048 | 4.21319 | 32066 ft | 484 kts | 134° |
| 2026-05-06 00:36 | 5.77650 | 4.23686 | 32657 ft | 482 kts | 133° |
| 2026-05-06 00:36 | 5.75272 | 4.26046 | 33246 ft | 481 kts | 133° |
| 2026-05-06 00:37 | 5.72896 | 4.28409 | 33827 ft | 479 kts | 133° |
| 2026-05-06 00:37 | 5.70530 | 4.30763 | 34332 ft | 478 kts | 133° |
| 2026-05-06 00:37 | 5.68173 | 4.33107 | 34819 ft | 476 kts | 133° |
| 2026-05-06 00:37 | 5.65825 | 4.35441 | 35307 ft | 475 kts | 133° |
| 2026-05-06 00:38 | 5.63483 | 4.37769 | 35793 ft | 473 kts | 134° |
| 2026-05-06 00:38 | 5.61151 | 4.40085 | 36251 ft | 471 kts | 134° |
| 2026-05-06 00:38 | 5.58861 | 4.42358 | 36736 ft | 469 kts | 134° |
| 2026-05-06 00:38 | 5.56548 | 4.44655 | 37175 ft | 467 kts | 134° |
| 2026-05-06 00:39 | 5.54242 | 4.46945 | 37587 ft | 465 kts | 134° |
| 2026-05-06 00:39 | 5.51940 | 4.49229 | 38013 ft | 464 kts | 134° |
| 2026-05-06 00:39 | 5.49650 | 4.51502 | 38459 ft | 462 kts | 134° |
| 2026-05-06 00:39 | 5.47371 | 4.53764 | 38833 ft | 460 kts | 134° |
| 2026-05-06 00:40 | 5.45098 | 4.56020 | 39102 ft | 460 kts | 134° |
| 2026-05-06 00:40 | 5.42824 | 4.58276 | 39368 ft | 459 kts | 134° |
| 2026-05-06 00:40 | 5.40561 | 4.60521 | 39728 ft | 457 kts | 134° |
| 2026-05-06 00:40 | 5.38312 | 4.62752 | 40085 ft | 454 kts | 134° |
| 2026-05-06 00:41 | 5.36106 | 4.64940 | 40444 ft | 450 kts | 134° |
| 2026-05-06 00:41 | 5.33895 | 4.67131 | 40780 ft | 448 kts | 134° |
| 2026-05-06 00:41 | 5.31671 | 4.69335 | 40882 ft | 451 kts | 134° |
| 2026-05-06 00:42 | 5.27162 | 4.73805 | 40898 ft | 461 kts | 134° |
| 2026-05-06 00:42 | 5.22564 | 4.78363 | 40898 ft | 465 kts | 134° |
| 2026-05-06 00:43 | 5.18016 | 4.82869 | 40900 ft | 461 kts | 134° |
| 2026-05-06 00:43 | 5.13446 | 4.87397 | 40898 ft | 462 kts | 134° |
| 2026-05-06 00:44 | 5.08884 | 4.91916 | 40898 ft | 461 kts | 134° |
| 2026-05-06 00:44 | 5.04316 | 4.96440 | 40896 ft | 463 kts | 134° |
| 2026-05-06 00:45 | 4.99751 | 5.00962 | 40898 ft | 465 kts | 134° |
| 2026-05-06 00:45 | 4.95142 | 5.05524 | 40897 ft | 465 kts | 134° |
| 2026-05-06 00:46 | 4.90536 | 5.10085 | 40903 ft | 466 kts | 134° |
| 2026-05-06 00:46 | 4.85907 | 5.14666 | 40903 ft | 468 kts | 134° |
| 2026-05-06 00:47 | 4.81268 | 5.19253 | 40905 ft | 468 kts | 134° |
| 2026-05-06 00:47 | 4.76647 | 5.23782 | 40905 ft | 468 kts | 134° |
| 2026-05-06 00:48 | 4.71979 | 5.28335 | 40903 ft | 468 kts | 135° |
| 2026-05-06 00:48 | 4.67309 | 5.32891 | 40905 ft | 468 kts | 135° |
| 2026-05-06 00:49 | 4.62642 | 5.37445 | 40906 ft | 468 kts | 134° |
| 2026-05-06 00:49 | 4.58016 | 5.41960 | 40911 ft | 468 kts | 134° |
| 2026-05-06 00:50 | 4.53356 | 5.46508 | 40902 ft | 467 kts | 134° |
| 2026-05-06 00:50 | 4.48703 | 5.51047 | 40910 ft | 466 kts | 134° |
| 2026-05-06 00:51 | 4.44054 | 5.55583 | 40910 ft | 466 kts | 135° |
| 2026-05-06 00:51 | 4.40191 | 5.59350 | 40901 ft | 467 kts | 135° |
| 2026-05-06 00:52 | 4.34780 | 5.64626 | 40904 ft | 467 kts | 134° |
| 2026-05-06 00:52 | 4.30129 | 5.69158 | 40906 ft | 467 kts | 134° |
| 2026-05-06 00:53 | 4.26262 | 5.72924 | 40911 ft | 466 kts | 134° |
| 2026-05-06 00:53 | 4.21616 | 5.77453 | 40905 ft | 466 kts | 134° |
| 2026-05-06 00:54 | 4.16965 | 5.81984 | 40910 ft | 467 kts | 135° |
| 2026-05-06 00:54 | 4.12311 | 5.86518 | 40903 ft | 467 kts | 135° |
| 2026-05-06 00:55 | 4.07689 | 5.91019 | 40909 ft | 467 kts | 135° |
| 2026-05-06 00:55 | 4.03026 | 5.95560 | 40907 ft | 467 kts | 135° |
| 2026-05-06 00:56 | 3.98365 | 6.00099 | 40901 ft | 467 kts | 134° |
| 2026-05-06 00:56 | 3.93706 | 6.04633 | 40905 ft | 467 kts | 134° |
| 2026-05-06 00:57 | 3.89091 | 6.09126 | 40901 ft | 467 kts | 134° |
| 2026-05-06 00:57 | 3.84434 | 6.13659 | 40903 ft | 467 kts | 135° |
| 2026-05-06 00:58 | 3.79781 | 6.18189 | 40903 ft | 467 kts | 135° |
| 2026-05-06 00:58 | 3.75125 | 6.22724 | 40905 ft | 466 kts | 135° |
| 2026-05-06 00:59 | 3.70474 | 6.27254 | 40905 ft | 467 kts | 134° |
| 2026-05-06 00:59 | 3.65855 | 6.31753 | 40908 ft | 466 kts | 135° |
| 2026-05-06 01:00 | 3.61203 | 6.36284 | 40907 ft | 466 kts | 135° |
| 2026-05-06 01:00 | 3.56550 | 6.40815 | 40904 ft | 466 kts | 135° |
| 2026-05-06 01:01 | 3.51896 | 6.45346 | 40907 ft | 467 kts | 135° |
| 2026-05-06 01:01 | 3.47276 | 6.49843 | 40911 ft | 466 kts | 134° |
| 2026-05-06 01:02 | 3.42640 | 6.54356 | 40908 ft | 465 kts | 135° |
| 2026-05-06 01:02 | 3.38005 | 6.58866 | 40905 ft | 465 kts | 134° |
| 2026-05-06 01:03 | 3.33374 | 6.63373 | 40901 ft | 464 kts | 135° |
| 2026-05-06 01:03 | 3.28771 | 6.67850 | 40908 ft | 465 kts | 134° |
| 2026-05-06 01:04 | 3.24134 | 6.72355 | 40905 ft | 465 kts | 136° |
| 2026-05-06 01:04 | 3.19270 | 6.76630 | 40905 ft | 466 kts | 139° |
| 2026-05-06 01:05 | 3.14260 | 6.80742 | 40908 ft | 466 kts | 140° |
| 2026-05-06 01:05 | 3.09285 | 6.84820 | 40904 ft | 465 kts | 139° |
| 2026-05-06 01:06 | 3.04297 | 6.88938 | 40902 ft | 465 kts | 139° |
| 2026-05-06 01:06 | 2.99308 | 6.93067 | 40903 ft | 466 kts | 139° |
| 2026-05-06 01:07 | 2.94318 | 6.97199 | 40908 ft | 466 kts | 139° |
| 2026-05-06 01:07 | 2.89328 | 7.01328 | 40901 ft | 465 kts | 139° |
| 2026-05-06 01:08 | 2.84373 | 7.05429 | 40901 ft | 465 kts | 139° |
| 2026-05-06 01:08 | 2.79381 | 7.09559 | 40899 ft | 466 kts | 139° |
| 2026-05-06 01:09 | 2.74385 | 7.13692 | 40897 ft | 466 kts | 139° |
| 2026-05-06 01:09 | 2.69393 | 7.17822 | 40897 ft | 466 kts | 139° |
| 2026-05-06 01:10 | 2.64433 | 7.21924 | 40906 ft | 466 kts | 139° |
| 2026-05-06 01:10 | 2.59442 | 7.26052 | 40903 ft | 466 kts | 139° |
| 2026-05-06 01:11 | 2.54453 | 7.30175 | 40898 ft | 465 kts | 139° |
| 2026-05-06 01:11 | 2.49464 | 7.34299 | 40896 ft | 465 kts | 139° |
| 2026-05-06 01:12 | 2.44515 | 7.38391 | 40902 ft | 465 kts | 139° |
| 2026-05-06 01:12 | 2.39631 | 7.42636 | 40907 ft | 464 kts | 135° |
| 2026-05-06 01:13 | 2.35003 | 7.47125 | 40903 ft | 463 kts | 134° |
| 2026-05-06 01:13 | 2.30417 | 7.51651 | 40905 ft | 464 kts | 134° |
| 2026-05-06 01:14 | 2.23531 | 7.58388 | 40910 ft | 464 kts | 135° |
| 2026-05-06 01:14 | 2.18907 | 7.62894 | 40900 ft | 464 kts | 135° |
| 2026-05-06 01:15 | 2.16599 | 7.65141 | 40670 ft | 462 kts | 134° |
| 2026-05-06 01:15 | 2.14323 | 7.67357 | 40395 ft | 453 kts | 135° |
| 2026-05-06 01:15 | 2.12072 | 7.69548 | 39967 ft | 451 kts | 135° |
| 2026-05-06 01:15 | 2.09827 | 7.71735 | 39489 ft | 450 kts | 134° |
| 2026-05-06 01:16 | 2.07620 | 7.73885 | 39024 ft | 449 kts | 134° |
| 2026-05-06 01:16 | 2.05387 | 7.76061 | 38557 ft | 449 kts | 135° |
| 2026-05-06 01:16 | 2.03150 | 7.78241 | 38027 ft | 450 kts | 135° |
| 2026-05-06 01:16 | 2.00904 | 7.80428 | 37548 ft | 452 kts | 135° |
| 2026-05-06 01:17 | 1.98641 | 7.82632 | 37060 ft | 455 kts | 134° |
| 2026-05-06 01:17 | 1.96373 | 7.84841 | 36585 ft | 456 kts | 135° |
| 2026-05-06 01:17 | 1.94094 | 7.87061 | 36120 ft | 459 kts | 135° |
| 2026-05-06 01:17 | 1.91803 | 7.89292 | 35641 ft | 460 kts | 135° |
| 2026-05-06 01:18 | 1.89535 | 7.91501 | 35159 ft | 462 kts | 134° |
| 2026-05-06 01:18 | 1.87228 | 7.93747 | 34646 ft | 464 kts | 134° |
| 2026-05-06 01:18 | 1.84928 | 7.96008 | 34142 ft | 465 kts | 134° |
| 2026-05-06 01:18 | 1.82625 | 7.98288 | 33554 ft | 467 kts | 134° |
| 2026-05-06 01:19 | 1.80317 | 8.00582 | 32986 ft | 468 kts | 133° |
| 2026-05-06 01:19 | 1.78008 | 8.02880 | 32426 ft | 469 kts | 133° |
| 2026-05-06 01:19 | 1.75693 | 8.05183 | 31880 ft | 470 kts | 133° |
| 2026-05-06 01:19 | 1.73370 | 8.07493 | 31335 ft | 471 kts | 134° |
| 2026-05-06 01:20 | 1.71073 | 8.09777 | 30807 ft | 472 kts | 134° |
| 2026-05-06 01:20 | 1.68741 | 8.12094 | 30258 ft | 473 kts | 134° |
| 2026-05-06 01:20 | 1.66400 | 8.14419 | 29661 ft | 474 kts | 134° |
| 2026-05-06 01:20 | 1.64058 | 8.16745 | 29066 ft | 475 kts | 134° |
| 2026-05-06 01:21 | 1.61711 | 8.19077 | 28492 ft | 477 kts | 134° |
| 2026-05-06 01:21 | 1.59354 | 8.21418 | 27910 ft | 479 kts | 134° |
| 2026-05-06 01:21 | 1.56994 | 8.23762 | 27294 ft | 477 kts | 134° |
| 2026-05-06 01:21 | 1.54649 | 8.26090 | 26685 ft | 473 kts | 134° |
| 2026-05-06 01:22 | 1.52327 | 8.28396 | 26082 ft | 469 kts | 134° |
| 2026-05-06 01:22 | 1.50053 | 8.30653 | 25494 ft | 465 kts | 134° |
| 2026-05-06 01:22 | 1.47769 | 8.32921 | 24908 ft | 460 kts | 134° |
| 2026-05-06 01:22 | 1.45508 | 8.35166 | 24323 ft | 456 kts | 134° |
| 2026-05-06 01:23 | 1.43271 | 8.37388 | 23748 ft | 451 kts | 134° |
| 2026-05-06 01:23 | 1.41055 | 8.39588 | 23111 ft | 446 kts | 134° |
| 2026-05-06 01:23 | 1.38865 | 8.41762 | 22485 ft | 442 kts | 134° |
| 2026-05-06 01:23 | 1.36693 | 8.43919 | 21905 ft | 438 kts | 134° |
| 2026-05-06 01:24 | 1.34543 | 8.46053 | 21344 ft | 433 kts | 134° |
| 2026-05-06 01:24 | 1.32444 | 8.48137 | 20794 ft | 429 kts | 134° |
| 2026-05-06 01:24 | 1.30345 | 8.50222 | 20249 ft | 424 kts | 134° |
| 2026-05-06 01:24 | 1.28258 | 8.52293 | 19709 ft | 420 kts | 134° |
| 2026-05-06 01:25 | 1.26192 | 8.54344 | 19166 ft | 417 kts | 134° |
| 2026-05-06 01:25 | 1.24144 | 8.56377 | 18644 ft | 413 kts | 134° |
| 2026-05-06 01:25 | 1.22115 | 8.58390 | 18118 ft | 410 kts | 134° |
| 2026-05-06 01:25 | 1.20102 | 8.60388 | 17522 ft | 405 kts | 134° |
| 2026-05-06 01:26 | 1.18140 | 8.62335 | 16991 ft | 400 kts | 133° |
| 2026-05-06 01:26 | 1.16176 | 8.64284 | 16467 ft | 396 kts | 133° |
| 2026-05-06 01:26 | 1.14232 | 8.66212 | 15958 ft | 392 kts | 133° |
| 2026-05-06 01:26 | 1.12310 | 8.68121 | 15459 ft | 388 kts | 133° |
| 2026-05-06 01:27 | 1.10400 | 8.70016 | 14962 ft | 385 kts | 133° |
| 2026-05-06 01:27 | 1.08507 | 8.71895 | 14479 ft | 382 kts | 133° |
| 2026-05-06 01:27 | 1.06631 | 8.73758 | 13986 ft | 378 kts | 133° |
| 2026-05-06 01:27 | 1.04768 | 8.75606 | 13472 ft | 375 kts | 133° |
| 2026-05-06 01:28 | 1.02928 | 8.77433 | 12963 ft | 372 kts | 133° |
| 2026-05-06 01:28 | 1.01124 | 8.79224 | 12480 ft | 369 kts | 133° |
| 2026-05-06 01:28 | 0.99307 | 8.81027 | 12002 ft | 367 kts | 133° |
| 2026-05-06 01:28 | 0.97501 | 8.82820 | 11528 ft | 365 kts | 133° |
| 2026-05-06 01:29 | 0.95711 | 8.84597 | 11065 ft | 362 kts | 133° |
| 2026-05-06 01:29 | 0.93932 | 8.86363 | 10754 ft | 360 kts | 133° |
| 2026-05-06 01:29 | 0.92184 | 8.88096 | 10612 ft | 343 kts | 133° |
| 2026-05-06 01:29 | 0.90552 | 8.89710 | 10494 ft | 318 kts | 133° |
| 2026-05-06 01:30 | 0.89038 | 8.91206 | 10381 ft | 295 kts | 132° |
| 2026-05-06 01:30 | 0.87625 | 8.92606 | 10262 ft | 281 kts | 132° |
| 2026-05-06 01:30 | 0.86258 | 8.93964 | 10167 ft | 281 kts | 132° |
| 2026-05-06 01:30 | 0.84878 | 8.95338 | 10047 ft | 280 kts | 132° |
| 2026-05-06 01:31 | 0.83548 | 8.96756 | 9922 ft | 278 kts | 124° |
| 2026-05-06 01:31 | 0.82515 | 8.98368 | 9860 ft | 276 kts | 117° |
| 2026-05-06 01:31 | 0.81592 | 9.00049 | 9707 ft | 277 kts | 116° |
| 2026-05-06 01:31 | 0.80689 | 9.01754 | 9228 ft | 276 kts | 116° |
| 2026-05-06 01:32 | 0.79801 | 9.03438 | 8802 ft | 272 kts | 116° |
| 2026-05-06 01:32 | 0.78922 | 9.05107 | 8390 ft | 271 kts | 116° |
| 2026-05-06 01:32 | 0.78054 | 9.06754 | 7986 ft | 271 kts | 116° |
| 2026-05-06 01:32 | 0.77177 | 9.08416 | 7589 ft | 271 kts | 116° |
| 2026-05-06 01:33 | 0.76298 | 9.10080 | 7191 ft | 270 kts | 116° |
| 2026-05-06 01:33 | 0.75429 | 9.11725 | 6827 ft | 268 kts | 117° |
| 2026-05-06 01:33 | 0.74560 | 9.13368 | 6470 ft | 268 kts | 117° |
| 2026-05-06 01:33 | 0.73691 | 9.15012 | 6107 ft | 267 kts | 117° |
| 2026-05-06 01:34 | 0.72829 | 9.16641 | 5732 ft | 265 kts | 117° |
| 2026-05-06 01:34 | 0.71971 | 9.18264 | 5379 ft | 263 kts | 118° |
| 2026-05-06 01:34 | 0.71133 | 9.19848 | 5031 ft | 261 kts | 118° |
| 2026-05-06 01:34 | 0.70284 | 9.21453 | 4696 ft | 261 kts | 119° |
| 2026-05-06 01:35 | 0.69433 | 9.23061 | 4351 ft | 262 kts | 118° |
| 2026-05-06 01:35 | 0.68581 | 9.24671 | 4021 ft | 262 kts | 119° |
| 2026-05-06 01:35 | 0.67743 | 9.26257 | 3702 ft | 258 kts | 119° |
| 2026-05-06 01:35 | 0.66911 | 9.27831 | 3403 ft | 254 kts | 119° |
| 2026-05-06 01:36 | 0.66129 | 9.29315 | 3082 ft | 227 kts | 119° |
| 2026-05-06 01:36 | 0.65440 | 9.30625 | 2935 ft | 200 kts | 121° |
| 2026-05-06 01:36 | 0.64697 | 9.31732 | 2779 ft | 190 kts | 140° |
| 2026-05-06 01:36 | 0.63632 | 9.32423 | 2602 ft | 185 kts | 152° |
| 2026-05-06 01:37 | 0.62522 | 9.33062 | 2444 ft | 181 kts | 152° |
| 2026-05-06 01:37 | 0.61410 | 9.33672 | 2400 ft | 182 kts | 154° |
| 2026-05-06 01:37 | 0.60275 | 9.34232 | 2312 ft | 184 kts | 155° |
| 2026-05-06 01:37 | 0.59126 | 9.34790 | 2051 ft | 182 kts | 155° |
| 2026-05-06 01:38 | 0.57993 | 9.35341 | 2003 ft | 181 kts | 155° |
| 2026-05-06 01:38 | 0.56932 | 9.35859 | 1943 ft | 157 kts | 155° |
| 2026-05-06 01:38 | 0.55980 | 9.36322 | 1938 ft | 148 kts | 156° |
| 2026-05-06 01:38 | 0.55061 | 9.36768 | 1738 ft | 144 kts | 156° |
| 2026-05-06 01:39 | 0.54159 | 9.37205 | 1564 ft | 144 kts | 156° |
| 2026-05-06 01:39 | 0.53273 | 9.37635 | 1367 ft | 143 kts | 156° |
| 2026-05-06 01:39 | 0.52378 | 9.38065 | 1134 ft | 142 kts | 155° |
| 2026-05-06 01:39 | 0.51504 | 9.38507 | 957 ft | 141 kts | 155° |
| 2026-05-06 01:40 | 0.50607 | 9.38946 | 727 ft | 144 kts | 156° |
| 2026-05-06 01:40 | 0.49710 | 9.39373 | 639 ft | 143 kts | 156° |
| 2026-05-06 01:40 | 0.48820 | 9.39791 | 414 ft | 141 kts | 154° |
| 2026-05-06 01:40 | 0.47933 | 9.40230 | 257 ft | 144 kts | 152° |
| 2026-05-06 01:41 | 0.47032 | 9.40670 | 62 ft | 145 kts | 153° |
| 2026-05-06 01:41 | 0.46223 | 9.41061 | 44 ft | 114 kts | 154° |
| 2026-05-06 01:41 | 0.45584 | 9.41366 | 42 ft | 91 kts | 154° |
| 2026-05-06 01:41 | 0.45170 | 9.41565 | 42 ft | 33 kts | 154° |
| 2026-05-06 01:42 | 0.45098 | 9.41574 | 44 ft | 5 kts | 212° |
| 2026-05-06 01:42 | 0.45078 | 9.41553 | 45 ft | 3 kts | 234° |
| 2026-05-06 01:42 | 0.45067 | 9.41535 | 45 ft | 4 kts | 238° |
| 2026-05-06 01:42 | 0.45056 | 9.41508 | 45 ft | 5 kts | 252° |
| 2026-05-06 01:43 | 0.45054 | 9.41488 | 44 ft | 2 kts | 273° |
| 2026-05-06 01:43 | 0.45060 | 9.41471 | 45 ft | 3 kts | 292° |
| 2026-05-06 01:43 | 0.45078 | 9.41449 | 45 ft | 7 kts | 316° |
| 2026-05-06 01:43 | 0.45129 | 9.41419 | 45 ft | 9 kts | 332° |
| 2026-05-06 01:44 | 0.45186 | 9.41390 | 44 ft | 10 kts | 334° |
| 2026-05-06 01:44 | 0.45248 | 9.41363 | 45 ft | 9 kts | 346° |
| 2026-05-06 01:44 | 0.45311 | 9.41359 | 44 ft | 8 kts | 351° |
| 2026-05-06 01:44 | 0.45368 | 9.41340 | 42 ft | 9 kts | 339° |
| 2026-05-06 01:45 | 0.45428 | 9.41314 | 44 ft | 10 kts | 336° |
| 2026-05-06 01:45 | 0.45456 | 9.41299 | 44 ft | 1 kts | 326° |
| 2026-05-06 01:45 | 0.45462 | 9.41293 | 41 ft | 1 kts | 311° |
| 2026-05-06 01:45 | 0.45463 | 9.41284 | 44 ft | 1 kts | 275° |
| 2026-05-06 01:46 | 0.45454 | 9.41267 | 44 ft | 5 kts | 235° |
| 2026-05-06 01:46 | 0.45444 | 9.41257 | 44 ft | 1 kts | 225° |
| 2026-05-06 01:46 | 0.45440 | 9.41252 | 44 ft | 1 kts | 227° |
| 2026-05-06 01:46 | 0.45436 | 9.41249 | 44 ft | 0 kts | 226° |
| 2026-05-06 01:50 | 0.50157 | 9.39161 | 682 ft | 0 kts | 156° |
| 2026-05-06 01:50 | 0.49213 | 9.39604 | 515 ft | 109 kts | 156° |
| 2026-05-06 01:51 | 0.48339 | 9.40027 | 334 ft | 110 kts | 153° |
| 2026-05-06 01:51 | 0.47377 | 9.40505 | 131 ft | 114 kts | 153° |
| 2026-05-06 01:51 | 0.46435 | 9.40961 | 43 ft | 105 kts | 155° |
| 2026-05-06 01:51 | 0.47238 | 9.40572 | 105 ft | 94 kts | 153° |
| 2026-05-06 01:52 | 0.46558 | 9.40902 | 44 ft | 97 kts | 153° |
| 2026-05-06 01:52 | 0.46341 | 9.41004 | 42 ft | 81 kts | 155° |
| 2026-05-06 01:52 | 0.46778 | 9.40792 | 49 ft | 95 kts | 152° |
| 2026-05-06 01:52 | 0.45945 | 9.41194 | 42 ft | 50 kts | 154° |
| 2026-05-06 01:53 | 0.47344 | 9.40521 | 124 ft | 6 kts | 153° |
| 2026-05-06 01:53 | 0.46505 | 9.40928 | 44 ft | 92 kts | 155° |
| 2026-05-06 01:53 | 0.45733 | 9.41295 | 42 ft | 43 kts | 155° |
| 2026-05-06 01:53 | 0.45195 | 9.41553 | 44 ft | 0 kts | 154° |
| 2026-05-06 01:54 | 0.45107 | 9.41581 | 44 ft | 0 kts | 198° |
| 2026-05-06 01:55 | 0.47420 | 9.40484 | 141 ft | 61 kts | 153° |
| 2026-05-06 01:55 | 0.46473 | 9.40944 | 44 ft | 98 kts | 155° |
| 2026-05-06 01:56 | 0.45708 | 9.41307 | 40 ft | 47 kts | 154° |
| 2026-05-06 01:56 | 0.45185 | 9.41558 | 44 ft | 0 kts | 154° |
| 2026-05-06 01:56 | 0.46638 | 9.40861 | 43 ft | 75 kts | 153° |
| 2026-05-06 01:56 | 0.47231 | 9.40575 | 105 ft | 60 kts | 153° |
| 2026-05-06 01:57 | 0.46312 | 9.41018 | 44 ft | 73 kts | 154° |
| 2026-05-06 01:57 | 0.45581 | 9.41367 | 42 ft | 37 kts | 154° |